This is the latest recevied weather packets stored in our database for station/object SQ9PDE-13. If no packets are shown the sender has not sent any weather packets the latest 10 day(s).
| Time | Temp. | Humidity | Pressure | Rain* | Wind** | Luminosity | Snow |
|---|---|---|---|---|---|---|---|
| 1777995329 | 26.11° C | 26% | 1003.8 hPa | - | - | - | - |
| 1777995028 | 25.56° C | 26% | 1003.9 hPa | - | - | - | - |
| 1777994727 | 26.11° C | 27% | 1003.8 hPa | - | - | - | - |
| 1777994427 | 26.11° C | 26% | 1003.9 hPa | - | - | - | - |
| 1777994126 | 26.11° C | 27% | 1003.9 hPa | - | - | - | - |
| 1777993826 | 26.11° C | 27% | 1004 hPa | - | - | - | - |
| 1777993525 | 26.67° C | 27% | 1003.9 hPa | - | - | - | - |
| 1777993225 | 26.11° C | 27% | 1004 hPa | - | - | - | - |
| 1777992924 | 26.11° C | 27% | 1004 hPa | - | - | - | - |
| 1777992624 | 26.67° C | 26% | 1004 hPa | - | - | - | - |
| 1777992323 | 26.67° C | 26% | 1004.2 hPa | - | - | - | - |
| 1777992023 | 26.67° C | 27% | 1004.2 hPa | - | - | - | - |
| 1777991722 | 26.11° C | 27% | 1004.3 hPa | - | - | - | - |
| 1777991422 | 26.11° C | 27% | 1004.5 hPa | - | - | - | - |
| 1777991121 | 25.56° C | 27% | 1004.5 hPa | - | - | - | - |
| 1777990821 | 27.22° C | 27% | 1004.3 hPa | - | - | - | - |
| 1777990520 | 26.67° C | 28% | 1004.5 hPa | - | - | - | - |
| 1777989919 | 26.11° C | 28% | 1004.6 hPa | - | - | - | - |
| 1777989618 | 26.67° C | 28% | 1004.7 hPa | - | - | - | - |
| 1777989318 | 26.67° C | 28% | 1004.6 hPa | - | - | - | - |
| 1777989017 | 26.67° C | 29% | 1004.7 hPa | - | - | - | - |
| 1777988717 | 26.67° C | 29% | 1004.8 hPa | - | - | - | - |
| 1777988416 | 26.67° C | 29% | 1004.8 hPa | - | - | - | - |
| 1777988116 | 26.11° C | 28% | 1004.9 hPa | - | - | - | - |
| 1777987815 | 26.11° C | 29% | 1005 hPa | - | - | - | - |
* Rain since midnight (hover to see other rain measurements)
** Current wind speed in m/s (hover to see current wind gust speed)